createdAt,value
2018-11-11T00:00:20.703Z,6.00
2018-11-11T00:01:17.869Z,6.20
2018-11-11T00:02:20.819Z,5.90
2018-11-11T00:03:43.292Z,6.10
2018-11-11T00:04:23.872Z,5.90
2018-11-11T00:05:36.796Z,6.00
2018-11-11T00:06:18.997Z,5.20
2018-11-11T00:07:18.157Z,5.80
2018-11-11T00:08:17.536Z,5.00
2018-11-11T00:09:43.195Z,5.50
2018-11-11T00:12:02.633Z,5.40
2018-11-11T00:13:26.884Z,5.40
2018-11-11T00:14:26.860Z,5.60
2018-11-11T00:15:02.590Z,5.60
2018-11-11T00:16:34.967Z,5.80
2018-11-11T00:17:02.550Z,5.50
2018-11-11T00:18:01.317Z,5.80
2018-11-11T00:19:01.706Z,5.20
2018-11-11T00:20:40.566Z,5.50
2018-11-11T00:21:02.488Z,5.30
2018-11-11T00:22:04.079Z,5.70
2018-11-11T00:23:02.444Z,5.50
2018-11-11T00:24:07.279Z,5.70
2018-11-11T00:25:01.602Z,5.00
2018-11-11T00:26:00.989Z,5.30
2018-11-11T00:28:44.784Z,5.30
2018-11-11T00:29:46.078Z,5.40
2018-11-11T00:31:10.315Z,5.50
2018-11-11T00:31:44.627Z,5.30
2018-11-11T00:32:46.023Z,5.30
2018-11-11T00:34:10.268Z,5.10
2018-11-11T00:34:47.614Z,5.10
2018-11-11T00:35:45.168Z,5.60
2018-11-11T00:36:57.279Z,5.30
2018-11-11T00:38:18.340Z,5.00
2018-11-11T00:39:43.513Z,5.10
2018-11-11T00:40:17.903Z,5.20
2018-11-11T00:40:44.474Z,5.30
2018-11-11T00:42:03.662Z,5.50
2018-11-11T00:42:44.654Z,5.00
2018-11-11T00:43:57.158Z,5.30
2018-11-11T00:45:10.079Z,5.20
2018-11-11T00:45:45.000Z,5.00
2018-11-11T00:47:18.190Z,4.90
2018-11-11T00:47:47.388Z,4.70
2018-11-11T00:49:30.285Z,5.00
2018-11-11T00:49:45.743Z,4.90
2018-11-11T00:51:43.184Z,4.90
2018-11-11T00:51:44.288Z,5.10
2018-11-11T00:52:44.876Z,4.80
2018-11-11T00:53:50.523Z,5.00
2018-11-11T00:54:47.271Z,4.90
2018-11-11T00:55:47.255Z,4.70
2018-11-11T00:56:44.415Z,4.40
2018-11-11T00:59:27.920Z,4.10
2018-11-11T01:02:12.207Z,4.50
2018-11-11T01:03:44.993Z,4.30
2018-11-11T01:04:24.299Z,4.00
2018-11-11T01:05:11.564Z,4.10
2018-11-11T01:06:44.739Z,4.40
2018-11-11T01:07:12.120Z,4.20
2018-11-11T01:08:11.497Z,4.30
2018-11-11T01:09:37.149Z,3.80
2018-11-11T01:10:12.068Z,3.90
2018-11-11T01:11:11.441Z,4.30
2018-11-11T01:12:47.669Z,4.10
2018-11-11T01:13:24.148Z,3.80
2018-11-11T01:14:11.595Z,4.10
2018-11-11T01:16:03.789Z,3.60
2018-11-11T01:16:44.768Z,3.80
2018-11-11T01:17:14.382Z,3.70
2018-11-11T01:18:11.325Z,3.50
2018-11-11T01:19:24.050Z,3.80
2018-11-11T01:20:17.560Z,3.50
2018-11-11T01:21:11.275Z,3.40
2018-11-11T01:22:45.877Z,3.40
2018-11-11T01:23:11.236Z,3.70
2018-11-11T01:24:11.217Z,3.50
2018-11-11T01:25:11.200Z,3.40
2018-11-11T01:26:11.187Z,3.20
2018-11-11T01:27:11.170Z,3.20
2018-11-11T01:28:11.154Z,3.30
2018-11-11T01:29:11.132Z,3.40
2018-11-11T01:30:11.115Z,3.10
2018-11-11T01:31:11.099Z,3.10
2018-11-11T01:32:11.081Z,3.00
2018-11-11T01:33:11.067Z,3.10
2018-11-11T01:34:11.051Z,3.00
2018-11-11T01:35:11.030Z,2.70
2018-11-11T01:36:11.012Z,2.80
2018-11-11T01:37:10.993Z,2.90
2018-11-11T01:38:10.974Z,3.10
2018-11-11T01:39:10.959Z,3.10
2018-11-11T01:40:10.947Z,2.70
2018-11-11T01:41:10.924Z,3.20
2018-11-11T01:42:10.907Z,2.80
2018-11-11T01:43:10.895Z,2.90
2018-11-11T01:44:10.872Z,3.10
2018-11-11T01:45:10.854Z,2.90
2018-11-11T01:46:10.837Z,3.20
2018-11-11T01:47:10.818Z,2.80
2018-11-11T01:48:10.804Z,2.90
2018-11-11T01:49:10.798Z,2.70
2018-11-11T01:50:10.767Z,2.90
2018-11-11T01:51:10.750Z,3.00
2018-11-11T01:52:10.732Z,3.10
2018-11-11T01:53:10.714Z,2.80
2018-11-11T01:54:10.698Z,2.90
2018-11-11T01:55:10.682Z,2.80
2018-11-11T01:56:10.663Z,2.80
2018-11-11T01:57:10.647Z,2.70
2018-11-11T01:58:10.629Z,2.90
2018-11-11T01:59:10.616Z,2.70
2018-11-11T02:00:10.595Z,2.80
2018-11-11T02:01:10.583Z,2.70
2018-11-11T02:02:10.565Z,2.70
2018-11-11T02:03:10.549Z,2.90
2018-11-11T02:04:10.543Z,2.70
2018-11-11T02:05:10.515Z,3.00
2018-11-11T02:06:10.491Z,2.90
2018-11-11T02:07:10.474Z,3.00
2018-11-11T02:08:10.455Z,3.00
2018-11-11T02:09:10.447Z,2.50
2018-11-11T02:10:10.422Z,2.90
2018-11-11T02:11:10.406Z,2.70
2018-11-11T02:12:10.384Z,2.60
2018-11-11T02:13:10.374Z,2.90
2018-11-11T02:14:10.361Z,2.60
2018-11-11T02:15:10.334Z,2.80
2018-11-11T02:16:10.317Z,2.80
2018-11-11T02:17:10.302Z,2.50
2018-11-11T02:18:10.285Z,2.80
2018-11-11T02:19:10.269Z,2.70
2018-11-11T02:20:10.247Z,2.40
2018-11-11T02:21:10.310Z,3.10
2018-11-11T02:22:10.219Z,2.80
2018-11-11T02:23:10.195Z,2.80
2018-11-11T02:24:10.179Z,2.80
2018-11-11T02:25:10.164Z,2.80
2018-11-11T02:26:10.143Z,2.90
2018-11-11T02:27:10.127Z,2.60
2018-11-11T02:28:10.107Z,2.50
2018-11-11T02:29:10.092Z,2.70
2018-11-11T02:30:10.076Z,2.80
2018-11-11T02:31:10.058Z,2.60
2018-11-11T02:32:10.038Z,2.60
2018-11-11T02:33:10.019Z,2.50
2018-11-11T02:34:10.009Z,2.80
2018-11-11T02:35:09.990Z,2.50
2018-11-11T02:36:09.975Z,2.60
2018-11-11T02:37:09.950Z,2.70
2018-11-11T02:38:09.937Z,2.60
2018-11-11T02:39:09.917Z,2.60
2018-11-11T02:40:09.902Z,2.60
2018-11-11T02:41:09.885Z,2.60
2018-11-11T02:42:09.866Z,2.50
2018-11-11T02:43:09.846Z,2.50
2018-11-11T02:44:09.832Z,2.70
2018-11-11T02:45:09.815Z,2.70
2018-11-11T02:46:09.793Z,2.40
2018-11-11T02:47:09.783Z,2.80
2018-11-11T02:48:09.759Z,2.60
2018-11-11T02:49:09.741Z,2.70
2018-11-11T02:50:09.723Z,2.90
2018-11-11T02:51:09.713Z,2.60
2018-11-11T02:52:09.691Z,2.70
2018-11-11T02:53:09.670Z,2.90
2018-11-11T02:54:09.652Z,2.80
2018-11-11T02:55:09.634Z,2.70
2018-11-11T02:56:09.620Z,2.80
2018-11-11T02:57:09.597Z,2.80
2018-11-11T02:58:09.584Z,2.70
2018-11-11T02:59:09.565Z,2.80
2018-11-11T03:00:09.546Z,2.70
2018-11-11T03:01:09.528Z,2.60
2018-11-11T03:02:09.522Z,2.60
2018-11-11T03:03:09.497Z,2.50
2018-11-11T03:04:09.490Z,2.50
2018-11-11T03:05:09.457Z,2.90
2018-11-11T03:06:09.441Z,2.80
2018-11-11T03:07:09.429Z,2.50
2018-11-11T03:08:09.407Z,2.70
2018-11-11T03:09:09.390Z,2.80
2018-11-11T03:10:09.373Z,2.70
2018-11-11T03:11:09.363Z,2.90
2018-11-11T03:12:09.336Z,2.50
2018-11-11T03:13:09.322Z,2.70
2018-11-11T03:14:09.302Z,2.80
2018-11-11T03:15:09.283Z,2.60
2018-11-11T03:16:09.282Z,2.70
2018-11-11T03:17:09.253Z,2.30
2018-11-11T03:18:09.239Z,2.70
2018-11-11T03:19:09.218Z,2.60
2018-11-11T03:20:09.195Z,2.80
2018-11-11T03:21:09.180Z,2.50
2018-11-11T03:22:09.160Z,2.40
2018-11-11T03:23:09.146Z,2.40
2018-11-11T03:24:09.136Z,2.50
2018-11-11T03:25:09.112Z,2.30
2018-11-11T03:26:09.094Z,2.60
2018-11-11T03:27:09.074Z,2.50
2018-11-11T03:28:09.068Z,2.40
2018-11-11T03:29:09.036Z,2.30
2018-11-11T03:30:09.025Z,2.40
2018-11-11T03:31:09.007Z,2.20
2018-11-11T03:32:08.982Z,2.40
2018-11-11T03:33:08.969Z,2.30
2018-11-11T03:34:08.952Z,2.60
2018-11-11T03:35:08.928Z,2.10
2018-11-11T03:36:08.911Z,2.50
2018-11-11T03:37:08.909Z,2.30
2018-11-11T03:38:08.877Z,2.40
2018-11-11T03:39:08.859Z,2.50
2018-11-11T03:40:08.841Z,2.20
2018-11-11T03:41:08.829Z,2.30
2018-11-11T03:42:08.807Z,2.40
2018-11-11T03:43:08.794Z,2.20
2018-11-11T03:44:08.773Z,2.50
2018-11-11T03:45:08.755Z,2.10
2018-11-11T03:46:08.739Z,2.20
2018-11-11T03:47:08.731Z,2.10
2018-11-11T03:48:08.706Z,2.10
2018-11-11T03:49:08.685Z,2.20
2018-11-11T03:50:08.669Z,2.30
2018-11-11T03:51:08.649Z,2.20
2018-11-11T03:52:08.641Z,2.00
2018-11-11T03:53:08.615Z,2.30
2018-11-11T03:54:08.599Z,2.20
2018-11-11T03:55:08.582Z,2.00
2018-11-11T03:56:08.566Z,2.10
2018-11-11T03:57:08.548Z,2.20
2018-11-11T03:58:08.527Z,2.40
2018-11-11T03:59:08.517Z,2.10
2018-11-11T04:00:08.493Z,2.00
2018-11-11T04:01:08.474Z,2.20
2018-11-11T04:02:08.458Z,2.30
2018-11-11T04:03:08.449Z,2.10
2018-11-11T04:04:08.422Z,1.60
2018-11-11T04:05:08.406Z,2.10
2018-11-11T04:06:08.393Z,2.40
2018-11-11T04:07:08.371Z,2.10
2018-11-11T04:08:08.352Z,2.00
2018-11-11T04:09:08.334Z,2.20
2018-11-11T04:10:08.344Z,2.20
2018-11-11T04:11:08.299Z,2.10
2018-11-11T04:12:08.287Z,2.00
2018-11-11T04:13:08.269Z,2.40
2018-11-11T04:14:08.249Z,2.30
2018-11-11T04:15:08.228Z,2.20
2018-11-11T04:16:08.216Z,2.00
2018-11-11T04:17:08.201Z,2.10
2018-11-11T04:18:08.178Z,1.80
2018-11-11T04:19:08.164Z,2.00
2018-11-11T04:20:08.142Z,2.10
2018-11-11T04:21:08.124Z,2.20
2018-11-11T04:22:08.111Z,2.20
2018-11-11T04:23:08.090Z,2.20
2018-11-11T04:24:08.072Z,2.20
2018-11-11T04:25:08.053Z,2.30
2018-11-11T04:26:08.044Z,2.00
2018-11-11T04:27:08.020Z,2.20
2018-11-11T04:28:08.005Z,2.10
2018-11-11T04:29:07.987Z,2.10
2018-11-11T04:30:07.966Z,2.20
2018-11-11T04:31:07.949Z,2.30
2018-11-11T04:32:07.930Z,1.80
2018-11-11T04:33:07.914Z,2.00
2018-11-11T04:34:07.900Z,2.10
2018-11-11T04:35:07.880Z,2.10
2018-11-11T04:36:07.861Z,2.00
2018-11-11T04:37:07.849Z,2.20
2018-11-11T04:38:07.825Z,2.00
2018-11-11T04:39:07.856Z,2.30
2018-11-11T04:40:07.795Z,2.20
2018-11-11T04:41:07.774Z,2.10
2018-11-11T04:42:07.755Z,2.10
2018-11-11T04:43:07.743Z,2.30
2018-11-11T04:44:07.724Z,2.00
2018-11-11T04:45:07.702Z,2.30
2018-11-11T04:46:07.686Z,2.10
2018-11-11T04:47:07.679Z,2.20
2018-11-11T04:48:07.650Z,2.20
2018-11-11T04:49:07.654Z,1.90
2018-11-11T04:50:07.618Z,2.30
2018-11-11T04:51:07.600Z,2.10
2018-11-11T04:52:07.587Z,1.90
2018-11-11T04:53:07.562Z,2.00
2018-11-11T04:54:07.551Z,2.30
2018-11-11T04:55:07.529Z,2.30
2018-11-11T04:56:07.508Z,2.30
2018-11-11T04:57:07.493Z,2.10
2018-11-11T04:58:07.481Z,2.50
2018-11-11T04:59:07.456Z,2.20
2018-11-11T05:00:07.442Z,2.20
2018-11-11T05:01:07.421Z,2.10
2018-11-11T05:02:07.410Z,2.10
2018-11-11T05:03:07.389Z,2.30
2018-11-11T05:04:07.374Z,2.40
2018-11-11T05:05:07.353Z,2.20
2018-11-11T05:06:07.336Z,2.10
2018-11-11T05:07:07.320Z,2.40
2018-11-11T05:08:07.299Z,2.30
2018-11-11T05:09:07.282Z,2.40
2018-11-11T05:10:07.266Z,2.20
2018-11-11T05:11:07.256Z,2.60
2018-11-11T05:12:07.230Z,2.50
2018-11-11T05:13:07.213Z,2.60
2018-11-11T05:14:07.193Z,2.30
2018-11-11T05:15:07.177Z,2.30
2018-11-11T05:16:07.164Z,2.00
2018-11-11T05:17:07.141Z,2.20
2018-11-11T05:18:07.123Z,2.30
2018-11-11T05:19:07.106Z,2.30
2018-11-11T05:20:07.089Z,2.20
2018-11-11T05:21:07.083Z,2.10
2018-11-11T05:22:07.054Z,1.90
2018-11-11T05:23:07.037Z,2.40
2018-11-11T05:24:07.022Z,2.10
2018-11-11T05:25:06.999Z,2.30
2018-11-11T05:26:06.983Z,2.20
2018-11-11T05:27:06.966Z,2.30
2018-11-11T05:28:06.950Z,2.10
2018-11-11T05:29:06.931Z,2.20
2018-11-11T05:30:06.919Z,2.20
2018-11-11T05:31:06.899Z,2.50
2018-11-11T05:32:06.883Z,2.10
2018-11-11T05:33:06.860Z,2.10
2018-11-11T05:34:06.843Z,2.40
2018-11-11T05:35:06.827Z,2.20
2018-11-11T05:36:06.808Z,2.80
2018-11-11T05:37:06.796Z,2.50
2018-11-11T05:38:06.774Z,2.00
2018-11-11T05:39:06.755Z,2.70
2018-11-11T05:40:06.737Z,2.30
2018-11-11T05:41:06.720Z,2.30
2018-11-11T05:42:06.710Z,2.30
2018-11-11T05:43:06.685Z,1.70
2018-11-11T05:44:06.670Z,2.40
2018-11-11T05:45:06.650Z,2.30
2018-11-11T05:46:06.632Z,2.20
2018-11-11T05:47:06.616Z,2.10
2018-11-11T05:48:06.595Z,2.60
2018-11-11T05:49:06.577Z,2.30
2018-11-11T05:50:06.560Z,2.30
2018-11-11T05:51:06.545Z,2.30
2018-11-11T05:52:06.526Z,2.40
2018-11-11T05:53:06.509Z,2.40
2018-11-11T05:54:06.491Z,2.30
2018-11-11T05:55:06.473Z,2.30
2018-11-11T05:56:06.457Z,2.70
2018-11-11T05:57:06.444Z,2.40
2018-11-11T05:58:06.423Z,2.10
2018-11-11T05:59:06.407Z,2.40
2018-11-11T06:00:06.389Z,2.50
2018-11-11T06:01:06.369Z,2.20
2018-11-11T06:02:06.352Z,2.40
2018-11-11T06:03:06.337Z,2.20
2018-11-11T06:04:06.318Z,2.50
2018-11-11T06:05:06.299Z,2.70
2018-11-11T06:06:06.280Z,2.10
2018-11-11T06:07:06.265Z,1.80
2018-11-11T06:08:06.246Z,2.40
2018-11-11T06:09:06.230Z,2.20
2018-11-11T06:10:06.214Z,2.40
2018-11-11T06:11:06.195Z,2.00
2018-11-11T06:12:06.174Z,2.40
2018-11-11T06:13:06.163Z,2.00
2018-11-11T06:14:06.140Z,2.80
2018-11-11T06:15:06.123Z,2.40
2018-11-11T06:16:06.108Z,2.00
2018-11-11T06:17:06.092Z,2.20
2018-11-11T06:18:06.069Z,2.30
2018-11-11T06:19:06.056Z,2.20
2018-11-11T06:20:06.038Z,2.80
2018-11-11T06:21:06.017Z,2.30
2018-11-11T06:22:06.005Z,2.40
2018-11-11T06:23:05.985Z,2.10
2018-11-11T06:24:05.964Z,2.20
2018-11-11T06:25:05.946Z,2.10
2018-11-11T06:26:05.929Z,2.10
2018-11-11T06:27:05.931Z,2.20
2018-11-11T06:28:05.895Z,2.00
2018-11-11T06:29:05.876Z,2.50
2018-11-11T06:30:05.859Z,2.10
2018-11-11T06:31:05.845Z,2.00
2018-11-11T06:32:05.823Z,1.80
2018-11-11T06:33:05.808Z,2.10
2018-11-11T06:34:05.796Z,2.30
2018-11-11T06:35:05.771Z,2.10
2018-11-11T06:36:05.753Z,2.00
2018-11-11T06:37:05.740Z,2.50
2018-11-11T06:38:05.721Z,2.20
2018-11-11T06:39:05.703Z,2.50
2018-11-11T06:40:05.685Z,2.40
2018-11-11T06:41:05.665Z,2.10
2018-11-11T06:42:05.657Z,2.30
2018-11-11T06:43:05.630Z,2.10
2018-11-11T06:44:05.611Z,2.20
2018-11-11T06:45:05.608Z,2.40
2018-11-11T06:46:05.578Z,2.20
2018-11-11T06:47:05.560Z,2.10
2018-11-11T06:48:05.641Z,2.00
2018-11-11T06:49:05.527Z,2.10
2018-11-11T06:50:05.507Z,2.60
2018-11-11T06:51:05.491Z,2.30
2018-11-11T06:52:05.471Z,2.20
2018-11-11T06:53:05.455Z,1.90
2018-11-11T06:54:05.485Z,2.30
2018-11-11T06:55:05.422Z,2.30
2018-11-11T06:56:05.404Z,2.10
2018-11-11T06:57:05.381Z,1.70
2018-11-11T06:58:05.462Z,2.20
2018-11-11T06:59:05.349Z,2.00
2018-11-11T07:00:05.330Z,2.00
2018-11-11T07:01:05.312Z,1.90
2018-11-11T07:02:05.298Z,2.10
2018-11-11T07:03:05.276Z,2.30
2018-11-11T07:04:05.263Z,2.60
2018-11-11T07:05:05.260Z,2.40
2018-11-11T07:06:05.228Z,2.10
2018-11-11T07:07:05.205Z,2.00
2018-11-11T07:08:05.194Z,2.20
2018-11-11T07:09:05.171Z,2.30
2018-11-11T07:10:05.156Z,2.20
2018-11-11T07:11:05.139Z,1.90
2018-11-11T07:12:05.124Z,2.20
2018-11-11T07:13:05.106Z,2.20
2018-11-11T07:14:05.124Z,2.00
2018-11-11T07:15:05.068Z,2.50
2018-11-11T07:16:05.051Z,2.30
2018-11-11T07:17:05.030Z,2.00
2018-11-11T07:18:05.016Z,2.20
2018-11-11T07:19:05.000Z,2.00
2018-11-11T07:20:04.983Z,2.20
2018-11-11T07:21:04.964Z,2.00
2018-11-11T07:22:04.950Z,2.20
2018-11-11T07:23:04.929Z,2.10
2018-11-11T07:24:04.919Z,2.00
2018-11-11T07:25:04.888Z,2.10
2018-11-11T07:26:04.870Z,2.10
2018-11-11T07:27:04.855Z,2.60
2018-11-11T07:28:04.837Z,2.30
2018-11-11T07:29:04.818Z,2.10
2018-11-11T07:30:04.807Z,1.80
2018-11-11T07:31:04.785Z,1.80
2018-11-11T07:32:04.767Z,2.00
2018-11-11T07:33:04.749Z,2.40
2018-11-11T07:34:04.738Z,2.10
2018-11-11T07:35:04.716Z,1.80
2018-11-11T07:36:04.752Z,2.20
2018-11-11T07:37:04.679Z,1.80
2018-11-11T07:38:04.666Z,2.00
2018-11-11T07:39:04.704Z,2.20
2018-11-11T07:40:04.624Z,2.10
2018-11-11T07:41:04.607Z,2.20
2018-11-11T07:42:04.590Z,1.90
2018-11-11T07:43:04.573Z,1.90
2018-11-11T07:44:04.557Z,2.10
2018-11-11T07:45:04.538Z,2.10
2018-11-11T07:46:04.534Z,2.20
2018-11-11T07:47:04.506Z,2.10
2018-11-11T07:48:04.554Z,2.20
2018-11-11T07:49:04.468Z,2.40
2018-11-11T07:50:04.451Z,2.10
2018-11-11T07:51:04.434Z,2.20
2018-11-11T07:52:04.523Z,2.50
2018-11-11T07:53:04.401Z,2.10
2018-11-11T07:54:04.384Z,1.90
2018-11-11T07:55:04.467Z,2.20
2018-11-11T07:56:04.343Z,1.80
2018-11-11T07:57:04.329Z,2.20
2018-11-11T07:58:04.311Z,2.20
2018-11-11T07:59:04.301Z,1.90
2018-11-11T08:00:04.275Z,2.20
2018-11-11T08:01:04.259Z,2.30
2018-11-11T08:02:04.276Z,2.20
2018-11-11T08:03:04.222Z,2.10
2018-11-11T08:04:04.210Z,2.30
2018-11-11T08:05:04.193Z,2.60
2018-11-11T08:06:04.172Z,2.30
2018-11-11T08:07:04.158Z,2.10
2018-11-11T08:08:04.137Z,2.30
2018-11-11T08:09:04.119Z,2.00
2018-11-11T08:10:04.102Z,2.20
2018-11-11T08:11:04.145Z,2.20
2018-11-11T08:12:04.070Z,2.20
2018-11-11T08:13:04.049Z,2.20
2018-11-11T08:14:04.030Z,2.40
2018-11-11T08:15:04.019Z,2.20
2018-11-11T08:16:04.006Z,2.30
2018-11-11T08:17:03.982Z,2.00
2018-11-11T08:18:03.966Z,2.00
2018-11-11T08:19:03.949Z,2.20
2018-11-11T08:20:03.932Z,2.10
2018-11-11T08:21:03.935Z,2.40
2018-11-11T08:22:03.898Z,2.00
2018-11-11T08:23:03.883Z,2.00
2018-11-11T08:24:03.873Z,2.20
2018-11-11T08:25:03.849Z,2.00
2018-11-11T08:26:03.840Z,1.90
2018-11-11T08:27:03.815Z,1.90
2018-11-11T08:28:03.797Z,1.90
2018-11-11T08:29:03.782Z,1.80
2018-11-11T08:30:03.765Z,1.90
2018-11-11T08:31:03.750Z,2.20
2018-11-11T08:32:03.796Z,2.00
2018-11-11T08:33:03.715Z,2.10
2018-11-11T08:34:03.697Z,2.00
2018-11-11T08:35:03.687Z,1.90
2018-11-11T08:36:03.664Z,2.30
2018-11-11T08:37:03.649Z,2.10
2018-11-11T08:38:03.645Z,2.00
2018-11-11T08:39:03.616Z,2.10
2018-11-11T08:40:03.608Z,2.00
2018-11-11T08:41:03.594Z,2.30
2018-11-11T08:42:03.575Z,2.30
2018-11-11T08:43:03.555Z,2.20
2018-11-11T08:44:03.546Z,1.90
2018-11-11T08:45:03.526Z,1.80
2018-11-11T08:46:03.508Z,1.90
2018-11-11T08:47:03.497Z,1.90
2018-11-11T08:48:03.482Z,1.50
2018-11-11T08:49:03.467Z,2.20
2018-11-11T08:50:03.441Z,1.90
2018-11-11T08:51:03.422Z,1.90
2018-11-11T08:52:03.407Z,1.90
2018-11-11T08:53:03.391Z,2.10
2018-11-11T08:54:03.373Z,1.90
2018-11-11T08:55:03.370Z,1.70
2018-11-11T08:56:03.339Z,1.70
2018-11-11T08:57:03.332Z,1.80
2018-11-11T08:58:03.332Z,2.20
2018-11-11T08:59:03.294Z,1.30
2018-11-11T09:00:03.274Z,2.10
2018-11-11T09:01:03.269Z,1.70
2018-11-11T09:02:03.245Z,1.80
2018-11-11T09:03:03.237Z,1.80
2018-11-11T09:04:03.212Z,2.20
2018-11-11T09:05:03.228Z,2.00
2018-11-11T09:06:03.181Z,2.10
2018-11-11T09:07:03.161Z,2.40
2018-11-11T09:08:03.142Z,2.40
2018-11-11T09:09:03.129Z,2.00
2018-11-11T09:10:03.116Z,1.80
2018-11-11T09:11:03.100Z,2.00
2018-11-11T09:12:03.087Z,1.80
2018-11-11T09:13:03.068Z,2.00
2018-11-11T09:14:03.052Z,2.00
2018-11-11T09:15:03.036Z,1.90
2018-11-11T09:16:03.020Z,2.10
2018-11-11T09:17:03.006Z,2.00
2018-11-11T09:18:02.991Z,2.10
2018-11-11T09:19:02.973Z,1.90
2018-11-11T09:20:02.962Z,1.70
2018-11-11T09:21:02.941Z,1.70
2018-11-11T09:22:02.929Z,1.60
2018-11-11T09:23:02.909Z,2.20
2018-11-11T09:24:02.903Z,1.90
2018-11-11T09:25:02.886Z,1.80
2018-11-11T09:26:02.865Z,1.90
2018-11-11T09:27:02.850Z,1.80
2018-11-11T09:28:02.837Z,2.00
2018-11-11T09:29:02.872Z,1.90
2018-11-11T09:30:02.809Z,2.10
2018-11-11T09:31:02.783Z,1.80
2018-11-11T09:32:02.766Z,1.70
2018-11-11T09:33:02.750Z,1.80
2018-11-11T09:34:02.735Z,1.70
2018-11-11T09:35:02.746Z,1.60
2018-11-11T09:36:02.703Z,1.80
2018-11-11T09:37:02.690Z,1.50
2018-11-11T09:38:02.672Z,2.00
2018-11-11T09:39:02.684Z,1.80
2018-11-11T09:40:02.648Z,2.00
2018-11-11T09:41:02.621Z,1.70
2018-11-11T09:42:02.613Z,1.70
2018-11-11T09:43:02.590Z,1.80
2018-11-11T09:44:02.572Z,2.00
2018-11-11T09:45:02.556Z,2.00
2018-11-11T09:46:02.547Z,2.30
2018-11-11T09:47:02.523Z,1.90
2018-11-11T09:48:02.709Z,1.60
2018-11-11T09:49:02.504Z,1.70
2018-11-11T09:50:02.484Z,1.70
2018-11-11T09:51:02.463Z,1.90
2018-11-11T09:52:02.449Z,2.30
2018-11-11T09:53:02.429Z,2.20
2018-11-11T09:54:02.447Z,1.90
2018-11-11T09:55:02.395Z,2.00
2018-11-11T09:56:02.377Z,1.80
2018-11-11T09:57:02.361Z,1.60
2018-11-11T09:58:02.348Z,1.70
2018-11-11T09:59:02.328Z,1.80
2018-11-11T10:00:02.345Z,1.90
2018-11-11T10:01:02.294Z,2.00
2018-11-11T10:02:02.278Z,1.90
2018-11-11T10:03:02.262Z,1.80
2018-11-11T10:04:02.248Z,1.80
2018-11-11T10:05:02.229Z,2.00
2018-11-11T10:06:02.215Z,1.80
2018-11-11T10:07:02.250Z,2.20
2018-11-11T10:08:02.187Z,2.00
2018-11-11T10:09:02.169Z,1.70
2018-11-11T10:10:02.152Z,1.80
2018-11-11T10:11:02.139Z,1.70
2018-11-11T10:12:02.201Z,1.70
2018-11-11T10:13:02.106Z,1.80
2018-11-11T10:14:02.102Z,1.60
2018-11-11T10:15:02.087Z,1.70
2018-11-11T10:16:02.060Z,1.50
2018-11-11T10:17:02.045Z,1.90
2018-11-11T10:18:02.037Z,1.70
2018-11-11T10:19:02.025Z,1.90
2018-11-11T10:20:02.037Z,1.80
2018-11-11T10:21:01.998Z,1.60
2018-11-11T10:22:01.988Z,1.70
2018-11-11T10:23:01.972Z,1.40
2018-11-11T10:24:01.957Z,1.50
2018-11-11T10:25:01.948Z,1.80
2018-11-11T10:26:01.929Z,1.50
2018-11-11T10:27:01.943Z,1.60
2018-11-11T10:28:01.906Z,1.60
2018-11-11T10:29:01.945Z,1.70
2018-11-11T10:30:01.900Z,1.60
2018-11-11T10:31:01.865Z,1.70
2018-11-11T10:32:01.855Z,1.50
2018-11-11T10:33:01.840Z,1.40
2018-11-11T10:34:01.830Z,1.80
2018-11-11T10:35:01.813Z,1.70
2018-11-11T10:36:01.798Z,1.70
2018-11-11T10:37:01.782Z,1.80
2018-11-11T10:38:01.772Z,1.60
2018-11-11T10:39:01.796Z,1.50
2018-11-11T10:40:01.744Z,1.50
2018-11-11T10:41:01.725Z,1.70
2018-11-11T10:42:01.709Z,1.90
2018-11-11T10:43:01.712Z,1.50
2018-11-11T10:44:01.683Z,1.70
2018-11-11T10:45:01.678Z,1.70
2018-11-11T10:46:01.828Z,1.90
2018-11-11T10:47:01.641Z,1.60
2018-11-11T10:48:01.625Z,1.70
2018-11-11T10:49:01.614Z,1.50
2018-11-11T10:50:01.599Z,1.80
2018-11-11T10:51:01.584Z,1.50
2018-11-11T10:52:01.572Z,1.90
2018-11-11T10:53:01.558Z,1.50
2018-11-11T10:54:01.681Z,1.80
2018-11-11T10:55:01.530Z,1.60
2018-11-11T10:56:01.521Z,1.60
2018-11-11T10:57:01.502Z,1.50
2018-11-11T10:58:01.495Z,1.50
2018-11-11T10:59:01.475Z,1.90
2018-11-11T11:00:01.526Z,1.60
2018-11-11T11:01:01.448Z,1.50
2018-11-11T11:02:01.441Z,1.90
2018-11-11T11:03:01.423Z,1.60
2018-11-11T11:04:01.408Z,1.60
2018-11-11T11:05:01.400Z,1.70
2018-11-11T11:06:01.460Z,1.60
2018-11-11T11:07:01.378Z,1.80
2018-11-11T11:08:01.357Z,1.50
2018-11-11T11:09:01.334Z,1.60
2018-11-11T11:10:01.324Z,1.40
2018-11-11T11:11:01.304Z,2.10
2018-11-11T11:12:01.288Z,2.20
2018-11-11T11:13:01.276Z,1.60
2018-11-11T11:14:01.363Z,1.50
2018-11-11T11:15:01.243Z,1.60
2018-11-11T11:16:01.231Z,1.70
2018-11-11T11:17:01.216Z,1.40
2018-11-11T11:18:01.198Z,1.80
2018-11-11T11:19:01.184Z,1.80
2018-11-11T11:20:01.170Z,1.60
2018-11-11T11:21:01.151Z,1.50
2018-11-11T11:22:01.141Z,1.60
2018-11-11T11:23:01.245Z,1.80
2018-11-11T11:24:01.105Z,1.90
2018-11-11T11:25:01.104Z,1.90
2018-11-11T11:26:01.078Z,1.60
2018-11-11T11:27:01.089Z,1.60
2018-11-11T11:28:01.042Z,1.70
2018-11-11T11:29:01.079Z,1.50
2018-11-11T11:30:01.071Z,1.50
2018-11-11T11:31:00.997Z,2.00
2018-11-11T11:32:01.140Z,1.70
2018-11-11T11:33:00.975Z,1.70
2018-11-11T11:34:00.951Z,1.60
2018-11-11T11:35:00.940Z,1.70
2018-11-11T11:36:00.916Z,1.60
2018-11-11T11:37:00.903Z,1.90
2018-11-11T11:38:00.905Z,1.60
2018-11-11T11:39:00.871Z,1.60
2018-11-11T11:40:00.854Z,1.90
2018-11-11T11:41:00.843Z,1.70
2018-11-11T11:42:00.841Z,1.70
2018-11-11T11:43:00.811Z,1.60
2018-11-11T11:44:00.871Z,1.80
2018-11-11T11:45:00.793Z,1.60
2018-11-11T11:46:00.772Z,1.70
2018-11-11T11:47:00.748Z,1.70
2018-11-11T11:48:00.734Z,1.60
2018-11-11T11:49:00.723Z,1.70
2018-11-11T11:50:00.804Z,1.80
2018-11-11T11:51:00.679Z,1.50
2018-11-11T11:52:00.722Z,1.70
2018-11-11T11:53:00.748Z,1.70
2018-11-11T11:54:00.638Z,1.80
2018-11-11T11:55:00.623Z,1.80
2018-11-11T11:56:00.602Z,1.50
2018-11-11T11:57:00.595Z,2.10
2018-11-11T11:58:00.633Z,1.90
2018-11-11T11:59:00.563Z,1.80
2018-11-11T12:00:00.539Z,1.70
2018-11-11T12:01:00.528Z,1.60
2018-11-11T12:02:00.562Z,1.80
2018-11-11T12:03:00.492Z,2.00
2018-11-11T12:04:00.477Z,1.70
2018-11-11T12:05:00.459Z,1.80
2018-11-11T12:06:00.451Z,1.70
2018-11-11T12:07:00.431Z,1.60
2018-11-11T12:08:00.413Z,1.60
2018-11-11T12:09:00.475Z,1.60
2018-11-11T12:10:00.383Z,1.70
2018-11-11T12:11:00.376Z,1.60
2018-11-11T12:12:00.355Z,1.70
2018-11-11T12:13:00.336Z,1.50
2018-11-11T12:14:00.326Z,1.80
2018-11-11T12:15:00.306Z,1.60
2018-11-11T12:16:00.287Z,1.80
2018-11-11T12:17:00.339Z,1.60
2018-11-11T12:18:00.257Z,1.80
2018-11-11T12:19:00.241Z,1.60
2018-11-11T12:20:00.227Z,1.70
2018-11-11T12:21:00.211Z,1.60
2018-11-11T12:22:00.196Z,1.70
2018-11-11T12:23:00.187Z,1.80
2018-11-11T12:24:00.162Z,1.90
2018-11-11T12:25:00.149Z,2.00
2018-11-11T12:26:00.137Z,2.00
2018-11-11T12:27:00.121Z,1.60
2018-11-11T12:28:00.111Z,1.50
2018-11-11T12:29:00.084Z,1.90
2018-11-11T12:30:00.073Z,1.60
2018-11-11T12:31:00.155Z,1.90
2018-11-11T12:32:00.040Z,1.90
2018-11-11T12:33:00.025Z,1.80
2018-11-11T12:34:00.012Z,1.90
2018-11-11T12:34:59.999Z,1.60
2018-11-11T12:35:59.980Z,1.80
2018-11-11T12:36:59.971Z,1.90
2018-11-11T12:37:59.948Z,1.50
2018-11-11T12:38:59.950Z,2.00
2018-11-11T12:40:00.064Z,2.00
2018-11-11T12:40:59.903Z,2.10
2018-11-11T12:41:59.883Z,1.70
2018-11-11T12:42:59.870Z,1.90
2018-11-11T12:43:59.855Z,1.70
2018-11-11T12:44:59.836Z,1.80
2018-11-11T12:45:59.823Z,1.90
2018-11-11T12:46:59.904Z,1.70
2018-11-11T12:47:59.790Z,1.80
2018-11-11T12:48:59.837Z,2.10
2018-11-11T12:49:59.760Z,1.90
2018-11-11T12:50:59.765Z,1.80
2018-11-11T12:51:59.727Z,1.70
2018-11-11T12:52:59.719Z,1.70
2018-11-11T12:53:59.758Z,1.90
2018-11-11T12:54:59.694Z,1.90
2018-11-11T12:55:59.670Z,1.70
2018-11-11T12:56:59.661Z,1.90
2018-11-11T12:57:59.637Z,1.80
2018-11-11T12:58:59.626Z,1.90
2018-11-11T12:59:59.614Z,1.80
2018-11-11T13:00:59.596Z,1.90
2018-11-11T13:01:59.574Z,1.80
2018-11-11T13:02:59.564Z,2.00
2018-11-11T13:03:59.575Z,1.90
2018-11-11T13:04:59.534Z,1.60
2018-11-11T13:05:59.512Z,1.70
2018-11-11T13:06:59.503Z,2.10
2018-11-11T13:07:59.530Z,2.00
2018-11-11T13:08:59.469Z,2.10
2018-11-11T13:09:59.462Z,1.90
2018-11-11T13:10:59.449Z,1.60
2018-11-11T13:11:59.506Z,1.90
2018-11-11T13:12:59.407Z,1.90
2018-11-11T13:13:59.470Z,2.10
2018-11-11T13:14:59.381Z,1.80
2018-11-11T13:15:59.361Z,1.60
2018-11-11T13:16:59.347Z,2.00
2018-11-11T13:17:59.336Z,1.70
2018-11-11T13:18:59.318Z,2.00
2018-11-11T13:19:59.299Z,1.70
2018-11-11T13:20:59.295Z,1.80
2018-11-11T13:21:59.343Z,2.00
2018-11-11T13:22:59.353Z,1.80
2018-11-11T13:23:59.249Z,2.20
2018-11-11T13:24:59.228Z,2.30